Hereford, Arizona
Current Conditions -  °F | °C
As of 8:56 PM on Sunday 19 Oct 2014 (Local Time) from KFHU Reporting Station
Broken Clouds Broken Clouds  
Wind Chill: 61°   Ceiling: 9500
Heat Index: 61°   Visibility: 10mi
Dew Point: 43°   Wind: 0mph
Humidity: 52%   Direction: NA
Pressure: 30.05"   Gusts: NA
Location:  31.44°N, 110.1°W
Report Text: KFHU 200356Z AUTO 00000KT 10SM FEW070 BKN095 16/06 A3005 RMK AO2 SLP127 T01610061 $
Loading
Personal Weather Stations






























Interactive Weather Map
Tropical Storm Tracking
New forecast layout! Learn more

10-Day Weather Forecast

Advertisements
Track Severe Weather on mobile